| time (UTC) | temp C | wind direction | speed KPH | gust KPH | rain 1hr cm | rain 24hr cm | rain mn cm | humidity % | barometer mb |
| 20260510131041 | 13 | 189 | 3.2 | 3.2 | 0.00 | 0.00 | 0.00 | 88 | 1019.9 |
| 20260510130537 | 13 | 166 | 1.6 | 1.6 | 0.00 | 0.00 | 0.00 | 88 | 1020.1 |
| 20260510130035 | 13 | 179 | 4.8 | 8.0 | 0.00 | 0.00 | 0.00 | 87 | 1020.0 |
| 20260510125531 | 13 | 199 | 3.2 | 3.2 | 0.00 | 0.00 | 0.00 | 88 | 1020.1 |
| 20260510125027 | 13 | 203 | 11.3 | 12.9 | 0.00 | 0.00 | 0.00 | 88 | 1020.0 |
| 20260510124524 | 13 | 172 | 6.4 | 9.7 | 0.00 | 0.00 | 0.00 | 88 | 1020.0 |
| 20260510124021 | 12 | 202 | 4.8 | 8.0 | 0.00 | 0.00 | 0.00 | 89 | 1020.0 |
| 20260510123516 | 12 | 192 | 8.0 | 9.7 | 0.00 | 0.00 | 0.00 | 90 | 1019.7 |
| 20260510123012 | 12 | 209 | 8.0 | 11.3 | 0.00 | 0.00 | 0.00 | 90 | 1019.9 |
| 20260510122508 | 12 | 193 | 4.8 | 9.7 | 0.00 | 0.00 | 0.00 | 90 | 1019.9 |
| 20260510122004 | 12 | 185 | 8.0 | 9.7 | 0.00 | 0.00 | 0.00 | 90 | 1019.9 |
| 20260510121501 | 12 | 165 | 4.8 | 8.0 | 0.00 | 0.00 | 0.00 | 92 | 1019.8 |
| 20260510120959 | 12 | 181 | 4.8 | 8.0 | 0.00 | 0.00 | 0.00 | 93 | 1019.7 |
| 20260510120456 | 12 | 166 | 14.5 | 17.7 | 0.00 | 0.00 | 0.00 | 93 | 1019.9 |
| 20260510115951 | 12 | 164 | 8.0 | 14.5 | 0.00 | 0.00 | 0.00 | 94 | 1019.6 |
| 20260510115449 | 11 | 200 | 8.0 | 9.7 | 0.00 | 0.00 | 0.00 | 94 | 1019.8 |
| 20260510114945 | 11 | 186 | 6.4 | 8.0 | 0.00 | 0.00 | 0.00 | 94 | 1019.6 |
| 20260510114442 | 11 | 212 | 11.3 | 12.9 | 0.00 | 0.00 | 0.00 | 94 | 1019.4 |
| 20260510113937 | 11 | 186 | 4.8 | 11.3 | 0.00 | 0.00 | 0.00 | 95 | 1019.6 |
| 20260510113433 | 11 | 193 | 12.9 | 14.5 | 0.00 | 0.00 | 0.00 | 95 | 1019.7 |
| 20260510112931 | 11 | 199 | 4.8 | 4.8 | 0.00 | 0.00 | 0.00 | 95 | 1019.4 |
| 20260510112428 | 11 | 168 | 1.6 | 4.8 | 0.00 | 0.00 | 0.00 | 96 | 1019.6 |
| 20260510111924 | 11 | 186 | 6.4 | 8.0 | 0.00 | 0.00 | 0.00 | 96 | 1019.6 |
| 20260510111420 | 11 | 166 | 4.8 | 4.8 | 0.00 | 0.00 | 0.00 | 96 | 1019.8 |
| 20260510110916 | 11 | 171 | 8.0 | 9.7 | 0.00 | 0.00 | 0.00 | 96 | 1019.6 |
| 20260510110412 | 11 | 168 | 4.8 | 4.8 | 0.00 | 0.00 | 0.00 | 96 | 1019.7 |
| 20260510105908 | 11 | 195 | 6.4 | 9.7 | 0.00 | 0.00 | 0.00 | 96 | 1019.5 |
| 20260510105403 | 11 | 202 | 4.8 | 8.0 | 0.00 | 0.00 | 0.00 | 96 | 1019.6 |
| 20260510104859 | 11 | 165 | 9.7 | 11.3 | 0.00 | 0.00 | 0.00 | 96 | 1019.7 |
| 20260510104356 | 11 | 187 | 6.4 | 11.3 | 0.00 | 0.00 | 0.00 | 97 | 1019.5 |
| 20260510103852 | 11 | 194 | 1.6 | 1.6 | 0.00 | 0.00 | 0.00 | 97 | 1019.4 |
| 20260510103349 | 10 | 187 | 8.0 | 12.9 | 0.00 | 0.00 | 0.00 | 97 | 1019.2 |
| 20260510102844 | 10 | 186 | 1.6 | 1.6 | 0.00 | 0.00 | 0.00 | 97 | 1019.1 |
| 20260510102335 | 10 | 185 | 6.4 | 8.0 | 0.00 | 0.00 | 0.00 | 97 | 1019.0 |
| 20260510101832 | 10 | 122 | 6.4 | 9.7 | 0.00 | 0.00 | 0.00 | 97 | 1018.8 |
| 20260510101331 | 10 | 188 | 6.4 | 8.0 | 0.00 | 0.00 | 0.00 | 98 | 1019.0 |
| 20260510100826 | 10 | 180 | 4.8 | 9.7 | 0.00 | 0.00 | 0.00 | 98 | 1018.9 |
| 20260510100324 | 10 | 173 | 3.2 | 4.8 | 0.00 | 0.00 | 0.00 | 98 | 1018.5 |
| 20260510095820 | 10 | 212 | 4.8 | 4.8 | 0.00 | 0.00 | 0.00 | 98 | 1018.7 |
| 20260510095315 | 10 | 202 | 8.0 | 11.3 | 0.00 | 0.00 | 0.00 | 98 | 1018.8 |
| 20260510094809 | 10 | 188 | 4.8 | 8.0 | 0.00 | 0.00 | 0.00 | 98 | 1018.7 |
| 20260510094304 | 10 | 186 | 6.4 | 9.7 | 0.00 | 0.00 | 0.00 | 98 | 1018.7 |
| 20260510093801 | 10 | 195 | 6.4 | 8.0 | 0.00 | 0.00 | 0.00 | 98 | 1018.5 |
| 20260510093257 | 10 | 184 | 4.8 | 8.0 | 0.00 | 0.00 | 0.00 | 98 | 1018.5 |
| 20260510092753 | 10 | 196 | 6.4 | 8.0 | 0.00 | 0.00 | 0.00 | 98 | 1018.2 |
| 20260510092249 | 10 | 184 | 4.8 | 8.0 | 0.00 | 0.00 | 0.00 | 98 | 1018.0 |
| 20260510091745 | 10 | 182 | 8.0 | 11.3 | 0.00 | 0.00 | 0.00 | 98 | 1018.0 |
| 20260510091243 | 10 | 191 | 6.4 | 8.0 | 0.00 | 0.00 | 0.00 | 98 | 1018.2 |
| 20260510090739 | 10 | 185 | 3.2 | 3.2 | 0.00 | 0.00 | 0.00 | 98 | 1018.1 |
| 20260510090236 | 10 | 180 | 6.4 | 9.7 | 0.00 | 0.00 | 0.00 | 98 | 1018.0 |
| 20260510085731 | 10 | 165 | 8.0 | 9.7 | 0.00 | 0.00 | 0.00 | 98 | 1018.2 |
| 20260510085226 | 10 | 191 | 4.8 | 4.8 | 0.00 | 0.00 | 0.00 | 98 | 1018.3 |
| 20260510084722 | 10 | 163 | 8.0 | 11.3 | 0.00 | 0.00 | 0.00 | 98 | 1018.1 |
| 20260510084219 | 10 | 186 | 4.8 | 8.0 | 0.00 | 0.00 | 0.00 | 98 | 1018.2 |
| 20260510083716 | 10 | 156 | 6.4 | 8.0 | 0.00 | 0.00 | 0.00 | 98 | 1018.5 |
| 20260510083213 | 10 | 191 | 4.8 | 4.8 | 0.00 | 0.00 | 0.00 | 97 | 1018.1 |
| 20260510082708 | 10 | 196 | 3.2 | 3.2 | 0.00 | 0.00 | 0.00 | 97 | 1018.1 |
| 20260510082205 | 10 | 204 | 3.2 | 3.2 | 0.00 | 0.00 | 0.00 | 97 | 1018.3 |
| 20260510081704 | 10 | 196 | 4.8 | 9.7 | 0.00 | 0.00 | 0.00 | 97 | 1018.4 |
| 20260510081201 | 10 | 199 | 4.8 | 4.8 | 0.00 | 0.00 | 0.00 | 97 | 1018.2 |
| 20260510080655 | 10 | 181 | 6.4 | 8.0 | 0.00 | 0.00 | 0.00 | 97 | 1018.2 |
| 20260510080152 | 10 | 197 | 9.7 | 11.3 | 0.00 | 0.00 | 0.00 | 97 | 1018.1 |
| 20260510075649 | 10 | 193 | 6.4 | 9.7 | 0.00 | 0.00 | 0.00 | 97 | 1017.7 |
| 20260510075146 | 10 | 187 | 4.8 | 8.0 | 0.00 | 0.00 | 0.00 | 97 | 1018.1 |
| 20260510074643 | 10 | 185 | 6.4 | 8.0 | 0.00 | 0.00 | 0.00 | 97 | 1018.4 |
| 20260510074139 | 10 | 161 | 1.6 | 3.2 | 0.00 | 0.00 | 0.00 | 96 | 1018.4 |
| 20260510073636 | 11 | 177 | 6.4 | 8.0 | 0.00 | 0.00 | 0.00 | 96 | 1018.5 |
| 20260510073132 | 11 | 203 | 4.8 | 8.0 | 0.00 | 0.00 | 0.00 | 96 | 1018.7 |
| 20260510072628 | 11 | 148 | 3.2 | 4.8 | 0.00 | 0.00 | 0.00 | 96 | 1018.8 |
| 20260510072125 | 11 | 189 | 4.8 | 8.0 | 0.00 | 0.00 | 0.00 | 96 | 1018.7 |
| 20260510071620 | 11 | 189 | 8.0 | 9.7 | 0.00 | 0.00 | 0.00 | 95 | 1019.0 |
| 20260510071118 | 11 | 177 | 1.6 | 3.2 | 0.00 | 0.00 | 0.00 | 95 | 1019.4 |
| 20260510070615 | 11 | 171 | 0.0 | 1.6 | 0.00 | 0.00 | 0.00 | 95 | 1019.1 |
| 20260510070113 | 11 | 182 | 3.2 | 4.8 | 0.00 | 0.00 | 0.00 | 95 | 1019.0 |
| 20260510065608 | 11 | 128 | 3.2 | 4.8 | 0.00 | 0.00 | 0.00 | 95 | 1019.1 |
| 20260510065104 | 11 | 192 | 8.0 | 9.7 | 0.00 | 0.00 | 0.00 | 95 | 1018.9 |
| 20260510064555 | 11 | 179 | 9.7 | 12.9 | 0.00 | 0.00 | 0.00 | 95 | 1018.9 |
| 20260510064052 | 11 | 170 | 4.8 | 4.8 | 0.00 | 0.00 | 0.00 | 95 | 1018.9 |
| 20260510063549 | 11 | 205 | 6.4 | 8.0 | 0.00 | 0.00 | 0.00 | 95 | 1018.7 |
| 20260510063046 | 11 | 181 | 4.8 | 8.0 | 0.00 | 0.00 | 0.00 | 95 | 1018.8 |
| 20260510062542 | 11 | 189 | 8.0 | 11.3 | 0.00 | 0.00 | 0.00 | 95 | 1018.8 |
| 20260510062037 | 11 | 190 | 3.2 | 3.2 | 0.00 | 0.00 | 0.00 | 95 | 1018.7 |
| 20260510061534 | 11 | 178 | 8.0 | 9.7 | 0.00 | 0.00 | 0.00 | 95 | 1018.6 |
| 20260510061031 | 11 | 188 | 4.8 | 8.0 | 0.00 | 0.00 | 0.00 | 95 | 1018.5 |
| 20260510060527 | 11 | 202 | 6.4 | 9.7 | 0.00 | 0.00 | 0.00 | 95 | 1018.5 |
| 20260510060023 | 11 | 189 | 4.8 | 8.0 | 0.00 | 0.00 | 0.00 | 95 | 1018.1 |
| 20260510055520 | 11 | 191 | 4.8 | 8.0 | 0.00 | 0.00 | 0.00 | 95 | 1018.3 |
| 20260510055018 | 11 | 166 | 3.2 | 4.8 | 0.00 | 0.00 | 0.00 | 95 | 1018.2 |
| 20260510054513 | 11 | 187 | 8.0 | 9.7 | 0.00 | 0.00 | 0.00 | 95 | 1018.2 |
| 20260510054009 | 11 | 176 | 9.7 | 11.3 | 0.00 | 0.00 | 0.00 | 94 | 1018.2 |
| 20260510053503 | 11 | 150 | 9.7 | 14.5 | 0.00 | 0.00 | 0.00 | 95 | 1018.4 |
| 20260510053001 | 11 | 187 | 8.0 | 9.7 | 0.00 | 0.00 | 0.00 | 95 | 1018.5 |
| 20260510052456 | 11 | 190 | 6.4 | 8.0 | 0.00 | 0.00 | 0.00 | 95 | 1018.6 |
| 20260510051953 | 11 | 197 | 4.8 | 8.0 | 0.00 | 0.00 | 0.00 | 95 | 1018.3 |
| 20260510051448 | 11 | 201 | 11.3 | 12.9 | 0.00 | 0.00 | 0.00 | 95 | 1018.1 |
| 20260510050944 | 11 | 168 | 12.9 | 17.7 | 0.00 | 0.00 | 0.00 | 94 | 1018.1 |
| 20260510050442 | 11 | 171 | 4.8 | 8.0 | 0.00 | 0.00 | 0.00 | 94 | 1018.1 |
| 20260510045939 | 11 | 195 | 11.3 | 12.9 | 0.00 | 0.00 | 0.00 | 94 | 1018.3 |
| 20260510045436 | 11 | 157 | 4.8 | 4.8 | 0.00 | 0.00 | 0.00 | 94 | 1018.5 |
| 20260510044933 | 11 | 182 | 8.0 | 9.7 | 0.00 | 0.00 | 0.00 | 93 | 1018.3 |
| 20260510044430 | 11 | 179 | 4.8 | 4.8 | 0.00 | 0.00 | 0.00 | 93 | 1018.2 |
| 20260510043927 | 11 | 173 | 4.8 | 4.8 | 0.00 | 0.00 | 0.00 | 93 | 1018.5 |
| 20260510043422 | 11 | 162 | 8.0 | 11.3 | 0.00 | 0.00 | 0.00 | 93 | 1018.7 |
| 20260510042921 | 11 | 204 | 4.8 | 4.8 | 0.00 | 0.00 | 0.00 | 92 | 1018.5 |
| 20260510042416 | 11 | 192 | 6.4 | 9.7 | 0.00 | 0.00 | 0.00 | 92 | 1018.5 |
| 20260510041912 | 11 | 189 | 3.2 | 3.2 | 0.00 | 0.00 | 0.00 | 92 | 1018.4 |
| 20260510041410 | 11 | 192 | 8.0 | 11.3 | 0.00 | 0.00 | 0.00 | 92 | 1018.5 |
| 20260510040908 | 11 | 189 | 8.0 | 11.3 | 0.00 | 0.00 | 0.00 | 92 | 1018.5 |
| 20260510040404 | 11 | 195 | 3.2 | 4.8 | 0.00 | 0.00 | 0.00 | 92 | 1018.5 |
| 20260510035900 | 11 | 180 | 4.8 | 8.0 | 0.00 | 1.50 | 1.50 | 92 | 1018.4 |
| 20260510035356 | 11 | 203 | 4.8 | 8.0 | 0.00 | 1.50 | 1.50 | 92 | 1018.3 |
| 20260510034851 | 11 | 155 | 6.4 | 11.3 | 0.00 | 1.50 | 1.50 | 93 | 1018.1 |
| 20260510034350 | 11 | 172 | 6.4 | 9.7 | 0.00 | 1.50 | 1.50 | 93 | 1018.5 |
| 20260510033846 | 11 | 178 | 4.8 | 4.8 | 0.00 | 1.50 | 1.50 | 93 | 1018.3 |
| 20260510033342 | 11 | 174 | 11.3 | 14.5 | 0.00 | 1.50 | 1.50 | 93 | 1018.2 |
| 20260510032839 | 11 | 184 | 4.8 | 8.0 | 0.00 | 1.50 | 1.50 | 93 | 1018.0 |
| 20260510032336 | 11 | 176 | 3.2 | 4.8 | 0.00 | 1.50 | 1.50 | 93 | 1018.1 |
| 20260510031831 | 11 | 140 | 4.8 | 4.8 | 0.00 | 1.50 | 1.50 | 94 | 1018.3 |
| 20260510031326 | 11 | 203 | 3.2 | 3.2 | 0.00 | 1.50 | 1.50 | 94 | 1018.4 |
| 20260510030821 | 11 | 154 | 4.8 | 8.0 | 0.00 | 1.50 | 1.50 | 93 | 1018.3 |
| 20260510030318 | 11 | 159 | 3.2 | 3.2 | 0.00 | 1.50 | 1.50 | 93 | 1018.2 |
| 20260510025815 | 11 | 177 | 3.2 | 4.8 | 0.00 | 1.50 | 1.50 | 93 | 1018.2 |
| 20260510025312 | 11 | 184 | 8.0 | 12.9 | 0.00 | 1.50 | 1.50 | 93 | 1018.4 |
| 20260510024809 | 11 | 203 | 4.8 | 8.0 | 0.00 | 1.50 | 1.50 | 93 | 1018.6 |
| 20260510024306 | 11 | 177 | 3.2 | 4.8 | 0.00 | 1.50 | 1.50 | 93 | 1018.4 |
| 20260510023802 | 11 | 177 | 8.0 | 9.7 | 0.00 | 1.50 | 1.50 | 94 | 1018.2 |
| 20260510023259 | 11 | 166 | 4.8 | 4.8 | 0.00 | 1.50 | 1.50 | 94 | 1018.8 |
| 20260510022755 | 11 | 170 | 3.2 | 8.0 | 0.00 | 1.50 | 1.50 | 94 | 1018.5 |
| 20260510022250 | 11 | 165 | 6.4 | 9.7 | 0.00 | 1.50 | 1.50 | 94 | 1018.4 |
| 20260510021749 | 11 | 180 | 4.8 | 8.0 | 0.00 | 1.50 | 1.50 | 94 | 1018.4 |
| 20260510021247 | 11 | 162 | 6.4 | 9.7 | 0.00 | 1.50 | 1.50 | 95 | 1018.5 |
| 20260510020742 | 11 | 176 | 4.8 | 4.8 | 0.00 | 1.50 | 1.50 | 95 | 1018.5 |
| 20260510020237 | 11 | 209 | 3.2 | 3.2 | 0.00 | 1.50 | 1.50 | 95 | 1018.6 |
| 20260510015734 | 11 | 169 | 8.0 | 11.3 | 0.00 | 1.50 | 1.50 | 95 | 1018.6 |
| 20260510015230 | 11 | 164 | 8.0 | 11.3 | 0.00 | 1.50 | 1.50 | 95 | 1018.3 |
| 20260510014724 | 11 | 165 | 4.8 | 4.8 | 0.00 | 1.50 | 1.50 | 95 | 1018.4 |
| 20260510014222 | 11 | 167 | 3.2 | 4.8 | 0.00 | 1.50 | 1.50 | 95 | 1018.3 |
| 20260510013718 | 11 | 183 | 3.2 | 3.2 | 0.00 | 1.50 | 1.50 | 95 | 1018.4 |
| 20260510013213 | 11 | 198 | 4.8 | 4.8 | 0.00 | 1.50 | 1.50 | 96 | 1018.3 |
| 20260510012708 | 11 | 192 | 4.8 | 4.8 | 0.00 | 1.50 | 1.50 | 96 | 1018.5 |
| 20260510012203 | 11 | 185 | 1.6 | 3.2 | 0.00 | 1.50 | 1.50 | 96 | 1018.4 |
| 20260510011658 | 11 | 205 | 4.8 | 8.0 | 0.00 | 1.50 | 1.50 | 96 | 1018.5 |
| 20260510011154 | 11 | 192 | 8.0 | 9.7 | 0.00 | 1.50 | 1.50 | 96 | 1018.8 |
| 20260510010651 | 11 | 194 | 3.2 | 3.2 | 0.00 | 1.50 | 1.50 | 96 | 1018.3 |
| 20260510010148 | 11 | 198 | 4.8 | 4.8 | 0.00 | 1.50 | 1.50 | 95 | 1018.4 |
| 20260510005644 | 11 | 195 | 1.6 | 1.6 | 0.00 | 1.50 | 1.50 | 95 | 1018.2 |
| 20260510005141 | 11 | 194 | 4.8 | 8.0 | 0.00 | 1.50 | 1.50 | 95 | 1018.3 |
| 20260510004639 | 11 | 202 | 4.8 | 8.0 | 0.00 | 1.50 | 1.50 | 95 | 1018.4 |
| 20260510004137 | 11 | 147 | 4.8 | 4.8 | 0.00 | 1.50 | 1.50 | 95 | 1018.4 |
| 20260510003634 | 11 | 193 | 4.8 | 4.8 | 0.00 | 1.50 | 1.50 | 95 | 1018.6 |
| 20260510003129 | 11 | 218 | 6.4 | 8.0 | 0.00 | 1.50 | 1.50 | 95 | 1018.3 |
| 20260510002623 | 11 | 133 | 4.8 | 4.8 | 0.00 | 1.50 | 1.50 | 95 | 1018.3 |
| 20260510002121 | 11 | 177 | 3.2 | 3.2 | 0.00 | 1.50 | 1.50 | 95 | 1018.0 |
| 20260510001617 | 11 | 187 | 4.8 | 4.8 | 0.00 | 1.50 | 1.50 | 95 | 1017.9 |
| 20260510001117 | 11 | 182 | 3.2 | 3.2 | 0.00 | 1.50 | 1.50 | 95 | 1017.8 |
| 20260510000616 | 11 | 184 | 3.2 | 3.2 | 0.00 | 1.50 | 1.50 | 95 | 1017.7 |
| 20260510000114 | 11 | 183 | 1.6 | 3.2 | 0.00 | 1.50 | 1.50 | 95 | 1017.6 |
| 20260509235610 | 11 | 194 | 1.6 | 3.2 | 0.00 | 1.50 | 1.50 | 95 | 1017.5 |
| 20260509235107 | 11 | 178 | 4.8 | 8.0 | 0.00 | 1.50 | 1.50 | 95 | 1017.6 |
| 20260509234603 | 11 | 201 | 4.8 | 8.0 | 0.00 | 1.50 | 1.50 | 94 | 1017.6 |
| 20260509234101 | 11 | 195 | 3.2 | 3.2 | 0.00 | 1.50 | 1.50 | 94 | 1017.3 |
| 20260509233558 | 11 | 198 | 8.0 | 12.9 | 0.00 | 1.50 | 1.50 | 93 | 1017.5 |
| 20260509233055 | 11 | 187 | 6.4 | 9.7 | 0.00 | 1.50 | 1.50 | 93 | 1017.2 |
| 20260509232552 | 12 | 156 | 3.2 | 3.2 | 0.00 | 1.50 | 1.50 | 92 | 1017.2 |
| 20260509232049 | 12 | 192 | 8.0 | 11.3 | 0.00 | 1.50 | 1.50 | 92 | 1017.1 |
| 20260509231545 | 12 | 200 | 12.9 | 16.1 | 0.00 | 1.50 | 1.50 | 91 | 1017.0 |
| 20260509231043 | 12 | 194 | 4.8 | 4.8 | 0.00 | 1.50 | 1.50 | 92 | 1016.9 |
| 20260509230539 | 12 | 177 | 6.4 | 9.7 | 0.00 | 1.50 | 1.50 | 92 | 1017.0 |
| 20260509230037 | 12 | 168 | 8.0 | 11.3 | 0.00 | 1.50 | 1.50 | 92 | 1017.2 |
| 20260509225532 | 12 | 195 | 8.0 | 9.7 | 0.00 | 1.50 | 1.50 | 92 | 1017.1 |
| 20260509225028 | 12 | 108 | 8.0 | 12.9 | 0.00 | 1.50 | 1.50 | 92 | 1017.1 |
| 20260509224524 | 12 | 166 | 8.0 | 11.3 | 0.00 | 1.50 | 1.50 | 92 | 1017.0 |
| 20260509224020 | 12 | 155 | 9.7 | 11.3 | 0.00 | 1.50 | 1.50 | 92 | 1017.3 |
| 20260509223517 | 12 | 159 | 4.8 | 8.0 | 0.00 | 1.50 | 1.50 | 92 | 1017.2 |
| 20260509223015 | 12 | 203 | 11.3 | 12.9 | 0.00 | 1.50 | 1.50 | 92 | 1017.4 |
| 20260509222511 | 12 | 170 | 8.0 | 9.7 | 0.00 | 1.50 | 1.50 | 92 | 1017.3 |
| 20260509222007 | 12 | 173 | 12.9 | 16.1 | 0.00 | 1.50 | 1.50 | 93 | 1017.3 |
| 20260509221503 | 12 | 195 | 4.8 | 4.8 | 0.00 | 1.50 | 1.50 | 94 | 1017.4 |
| 20260509220959 | 12 | 182 | 11.3 | 12.9 | 0.00 | 1.50 | 1.50 | 94 | 1017.2 |
| 20260509220455 | 12 | 175 | 8.0 | 9.7 | 0.00 | 1.50 | 1.50 | 94 | 1017.2 |
| 20260509215951 | 12 | 176 | 14.5 | 17.7 | 0.00 | 1.50 | 1.50 | 94 | 1017.5 |
| 20260509215446 | 12 | 188 | 12.9 | 14.5 | 0.00 | 1.50 | 1.50 | 95 | 1017.6 |
| 20260509214945 | 12 | 185 | 4.8 | 8.0 | 0.00 | 1.50 | 1.50 | 95 | 1017.6 |
| 20260509214442 | 11 | 129 | 6.4 | 9.7 | 0.00 | 1.50 | 1.50 | 96 | 1017.5 |
| 20260509213938 | 11 | 179 | 9.7 | 14.5 | 0.00 | 1.50 | 1.50 | 96 | 1017.5 |
| 20260509213434 | 11 | 193 | 4.8 | 8.0 | 0.00 | 1.50 | 1.50 | 97 | 1017.5 |
| 20260509212932 | 11 | 198 | 9.7 | 12.9 | 0.00 | 1.50 | 1.50 | 98 | 1017.7 |
| 20260509212429 | 11 | 122 | 4.8 | 4.8 | 0.00 | 1.50 | 1.50 | 98 | 1017.6 |
| 20260509211925 | 11 | 187 | 9.7 | 11.3 | 0.00 | 1.50 | 1.50 | 98 | 1017.5 |
| 20260509211421 | 11 | 217 | 11.3 | 14.5 | 0.00 | 1.50 | 1.50 | 98 | 1017.6 |
| 20260509210917 | 11 | 126 | 6.4 | 8.0 | 0.00 | 1.50 | 1.50 | 98 | 1017.9 |
| 20260509210415 | 11 | 202 | 4.8 | 8.0 | 0.00 | 1.50 | 1.50 | 99 | 1017.7 |
| 20260509205910 | 11 | 189 | 9.7 | 17.7 | 0.00 | 1.50 | 1.50 | 99 | 1017.8 |
| 20260509205409 | 11 | 184 | 4.8 | 4.8 | 0.00 | 1.50 | 1.50 | 99 | 1017.8 |
| 20260509204906 | 11 | 168 | 3.2 | 3.2 | 0.00 | 1.50 | 1.50 | 99 | 1017.7 |
| 20260509204402 | 11 | 203 | 6.4 | 9.7 | 0.00 | 1.50 | 1.50 | 99 | 1017.8 |
| 20260509203859 | 11 | 189 | 4.8 | 4.8 | 0.00 | 1.50 | 1.50 | 99 | 1017.7 |
| 20260509203355 | 11 | 176 | 8.0 | 9.7 | 0.00 | 1.50 | 1.50 | 99 | 1018.0 |
| 20260509202852 | 11 | 180 | 4.8 | 4.8 | 0.00 | 1.50 | 1.50 | 99 | 1018.1 |
| 20260509202348 | 10 | 198 | 8.0 | 11.3 | 0.00 | 1.50 | 1.50 | 99 | 1018.3 |
| 20260509201843 | 10 | 208 | 11.3 | 12.9 | 0.00 | 1.50 | 1.50 | 99 | 1018.0 |
| 20260509201339 | 10 | 126 | 4.8 | 4.8 | 0.00 | 1.50 | 1.50 | 99 | 1018.2 |
| 20260509200836 | 10 | 169 | 8.0 | 9.7 | 0.00 | 1.50 | 1.50 | 99 | 1018.3 |
| 20260509200325 | 10 | 181 | 4.8 | 4.8 | 0.00 | 1.50 | 1.50 | 99 | 1018.4 |
| 20260509195822 | 10 | 183 | 8.0 | 11.3 | 0.00 | 1.50 | 1.50 | 99 | 1018.4 |
| 20260509195317 | 10 | 191 | 4.8 | 8.0 | 0.00 | 1.50 | 1.50 | 99 | 1018.6 |
| 20260509194816 | 10 | 194 | 11.3 | 12.9 | 0.00 | 1.50 | 1.50 | 99 | 1018.6 |
| 20260509194313 | 10 | 184 | 3.2 | 4.8 | 0.00 | 1.50 | 1.50 | 99 | 1018.5 |
| 20260509193809 | 10 | 192 | 3.2 | 3.2 | 0.00 | 1.50 | 1.50 | 99 | 1018.5 |
| 20260509193309 | 10 | 168 | 8.0 | 11.3 | 0.18 | 1.50 | 1.50 | 99 | 1018.7 |
| 20260509192806 | 10 | 198 | 8.0 | 12.9 | 0.18 | 1.50 | 1.50 | 99 | 1018.7 |
| 20260509192305 | 10 | 180 | 6.4 | 9.7 | 0.00 | 1.47 | 1.47 | 99 | 1018.7 |
| 20260509191756 | 10 | 161 | 3.2 | 4.8 | 0.00 | 1.47 | 1.47 | 99 | 1018.7 |
| 20260509191253 | 10 | 170 | 6.4 | 11.3 | 0.13 | 1.47 | 1.47 | 99 | 1018.7 |
| 20260509190749 | 10 | 187 | 3.2 | 4.8 | 0.13 | 1.47 | 1.47 | 99 | 1018.7 |
| 20260509190247 | 10 | 203 | 8.0 | 9.7 | 0.13 | 1.47 | 1.47 | 99 | 1019.1 |
| 20260509185744 | 10 | 165 | 6.4 | 9.7 | 0.00 | 1.45 | 1.45 | 99 | 1019.2 |
| 20260509185240 | 10 | 170 | 6.4 | 8.0 | 0.18 | 1.45 | 1.45 | 99 | 1019.1 |
| 20260509184738 | 10 | 178 | 4.8 | 4.8 | 0.18 | 1.45 | 1.45 | 99 | 1019.2 |
| 20260509184235 | 10 | 196 | 9.7 | 11.3 | 0.13 | 1.42 | 1.42 | 99 | 1019.1 |
| 20260509183731 | 10 | 99 | 3.2 | 3.2 | 0.13 | 1.42 | 1.42 | 99 | 1019.1 |
| 20260509183226 | 10 | 175 | 6.4 | 9.7 | 0.18 | 1.40 | 1.40 | 99 | 1018.8 |
| 20260509182722 | 10 | 209 | 6.4 | 8.0 | 0.30 | 1.40 | 1.40 | 99 | 1018.8 |
| 20260509182220 | 9 | 176 | 8.0 | 9.7 | 0.13 | 1.37 | 1.37 | 99 | 1018.8 |
| 20260509181717 | 9 | 196 | 6.4 | 8.0 | 0.00 | 1.35 | 1.35 | 99 | 1019.0 |
| 20260509181214 | 9 | 172 | 6.4 | 11.3 | 0.18 | 1.35 | 1.35 | 99 | 1019.2 |
| 20260509180711 | 9 | 163 | 4.8 | 4.8 | 0.18 | 1.35 | 1.35 | 99 | 1019.1 |
| 20260509180207 | 9 | 197 | 3.2 | 4.8 | 0.13 | 1.32 | 1.32 | 99 | 1019.0 |
| 20260509175704 | 9 | 183 | 6.4 | 9.7 | 0.13 | 1.32 | 1.32 | 99 | 1018.9 |
| 20260509175201 | 9 | 191 | 6.4 | 8.0 | 0.18 | 1.30 | 1.30 | 99 | 1019.1 |
| 20260509174656 | 9 | 185 | 8.0 | 11.3 | 0.36 | 1.30 | 1.30 | 99 | 1019.3 |
| 20260509174151 | 9 | 206 | 9.7 | 11.3 | 0.30 | 1.27 | 1.27 | 99 | 1019.2 |
| 20260509173648 | 8 | 187 | 6.4 | 9.7 | 0.30 | 1.24 | 1.24 | 99 | 1019.5 |
| 20260509173143 | 8 | 179 | 3.2 | 3.2 | 0.18 | 1.22 | 1.22 | 99 | 1019.2 |
| 20260509172640 | 8 | 205 | 9.7 | 11.3 | 0.30 | 1.22 | 1.22 | 99 | 1019.2 |
| 20260509172136 | 8 | 181 | 4.8 | 4.8 | 0.13 | 1.19 | 1.19 | 99 | 1019.4 |
| 20260509171632 | 8 | 172 | 4.8 | 4.8 | 0.18 | 1.17 | 1.17 | 99 | 1019.2 |
| 20260509171128 | 8 | 181 | 3.2 | 3.2 | 0.18 | 1.17 | 1.17 | 99 | 1019.0 |
| 20260509170625 | 8 | 198 | 4.8 | 8.0 | 0.30 | 1.17 | 1.17 | 99 | 1019.3 |
| 20260509170121 | 8 | 177 | 6.4 | 8.0 | 0.13 | 1.14 | 1.14 | 99 | 1019.4 |
| 20260509165619 | 8 | 183 | 1.6 | 1.6 | 0.18 | 1.12 | 1.12 | 99 | 1019.5 |
| 20260509165115 | 8 | 181 | 3.2 | 4.8 | 0.18 | 1.12 | 1.12 | 99 | 1019.2 |
| 20260509164612 | 8 | 168 | 1.6 | 3.2 | 0.18 | 1.12 | 1.12 | 99 | 1019.5 |
| 20260509164107 | 8 | 184 | 6.4 | 8.0 | 0.00 | 1.09 | 1.09 | 99 | 1019.4 |
| 20260509163606 | 8 | 153 | 8.0 | 11.3 | 0.13 | 1.09 | 1.09 | 99 | 1019.6 |
| 20260509163101 | 8 | 182 | 1.6 | 3.2 | 0.13 | 1.09 | 1.09 | 99 | 1019.7 |
| 20260509162558 | 8 | 184 | 4.8 | 8.0 | 0.18 | 1.07 | 1.07 | 99 | 1020.0 |
| 20260509162054 | 8 | 184 | 3.2 | 3.2 | 0.30 | 1.07 | 1.07 | 99 | 1020.0 |
| 20260509161550 | 8 | 187 | 4.8 | 4.8 | 0.30 | 1.04 | 1.04 | 99 | 1020.2 |
| 20260509161045 | 8 | 196 | 6.4 | 8.0 | 0.18 | 1.02 | 1.02 | 99 | 1020.0 |
| 20260509160541 | 8 | 173 | 4.8 | 4.8 | 0.30 | 1.02 | 1.02 | 99 | 1020.3 |
| 20260509160037 | 8 | 182 | 3.2 | 4.8 | 0.13 | 0.99 | 0.99 | 99 | 1020.3 |
| 20260509155533 | 8 | 184 | 1.6 | 1.6 | 0.18 | 0.97 | 0.97 | 99 | 1020.2 |
| 20260509155029 | 8 | 196 | 1.6 | 3.2 | 0.18 | 0.97 | 0.97 | 99 | 1020.2 |
| 20260509154526 | 8 | 204 | 3.2 | 3.2 | 0.36 | 0.97 | 0.97 | 99 | 1020.5 |
| 20260509154023 | 8 | 187 | 3.2 | 3.2 | 0.30 | 0.94 | 0.94 | 99 | 1020.6 |
| 20260509153520 | 8 | 182 | 3.2 | 3.2 | 0.30 | 0.91 | 0.91 | 99 | 1020.5 |
| 20260509153017 | 8 | 199 | 0.0 | 0.0 | 0.18 | 0.89 | 0.89 | 99 | 1021.0 |
| 20260509152513 | 7 | 195 | 0.0 | 1.6 | 0.30 | 0.89 | 0.89 | 99 | 1021.0 |
| 20260509152009 | 7 | 205 | 0.0 | 0.0 | 0.30 | 0.86 | 0.86 | 99 | 1021.2 |
| 20260509151506 | 7 | 201 | 0.0 | 1.6 | 0.30 | 0.84 | 0.84 | 99 | 1021.2 |
| 20260509151004 | 7 | 205 | 0.0 | 0.0 | 0.30 | 0.81 | 0.81 | 99 | 1021.1 |
| 20260509150501 | 7 | 201 | 0.0 | 0.0 | 0.30 | 0.79 | 0.79 | 99 | 1021.2 |
| 20260509150000 | 7 | 210 | 0.0 | 0.0 | 0.43 | 0.76 | 0.76 | 99 | 1021.3 |
| 20260509145455 | 7 | 177 | 0.0 | 0.0 | 0.48 | 0.74 | 0.74 | 99 | 1020.9 |
| 20260509144950 | 7 | 231 | 0.0 | 0.0 | 0.48 | 0.69 | 0.69 | 99 | 1021.2 |
| 20260509144447 | 7 | 214 | 0.0 | 0.0 | 0.48 | 0.66 | 0.66 | 99 | 1021.1 |
| 20260509143944 | 7 | 220 | 0.0 | 0.0 | 0.48 | 0.64 | 0.64 | 99 | 1021.0 |
| 20260509143441 | 6 | 214 | 0.0 | 0.0 | 0.30 | 0.58 | 0.58 | 99 | 1021.0 |
| 20260509142938 | 7 | 256 | 0.0 | 0.0 | 0.30 | 0.56 | 0.56 | 99 | 1020.9 |
| 20260509142434 | 7 | 228 | 0.0 | 0.0 | 0.30 | 0.53 | 0.53 | 99 | 1021.1 |
| 20260509141930 | 7 | 153 | 0.0 | 0.0 | 0.30 | 0.51 | 0.51 | 99 | 1020.7 |
| 20260509141427 | 6 | 127 | 0.0 | 1.6 | 0.30 | 0.48 | 0.48 | 99 | 1020.9 |
| 20260509140924 | 6 | 358 | 3.2 | 3.2 | 0.48 | 0.46 | 0.46 | 99 | 1020.9 |
| 20260509140420 | 6 | 310 | 1.6 | 3.2 | 0.43 | 0.43 | 0.43 | 99 | 1021.0 |
| 20260509135918 | 7 | 300 | 0.0 | 0.0 | 0.48 | 0.41 | 0.41 | 99 | 1021.1 |
| 20260509135416 | 7 | 248 | 0.0 | 0.0 | 0.30 | 0.38 | 0.38 | 99 | 1020.9 |
| 20260509134913 | 8 | 220 | 0.0 | 0.0 | 0.30 | 0.33 | 0.33 | 99 | 1020.6 |
| 20260509134410 | 7 | 194 | 0.0 | 0.0 | 0.30 | 0.33 | 0.33 | 99 | 1020.4 |
| 20260509133907 | 8 | 208 | 0.0 | 0.0 | 0.30 | 0.28 | 0.28 | 99 | 1020.5 |
| 20260509133404 | 8 | 192 | 0.0 | 0.0 | 0.30 | 0.28 | 0.28 | 99 | 1020.6 |
| 20260509132902 | 8 | 180 | 0.0 | 0.0 | 0.30 | 0.25 | 0.25 | 99 | 1020.7 |
| 20260509132400 | 8 | 188 | 0.0 | 0.0 | 0.18 | 0.23 | 0.23 | 99 | 1020.6 |
| 20260509131857 | 8 | 201 | 0.0 | 0.0 | 0.00 | 0.20 | 0.20 | 99 | 1020.9 |
| 20260509131354 | 8 | 193 | 1.6 | 3.2 | 0.13 | 0.20 | 0.20 | 99 | 1020.6 |